Flight Track Log - Related Links

Times and Time Zones

All times are in EDT time to prevent confusion due to time zone crossing. See the N829TG flight status page for this flight to view local times or setup timezone preferences in your user account.

Time Position Orientation Groundspeed Altitude Reporting Facility
EDT Latitude Longitude Course Direction KTS MPH feet Rate Location/Type
Wed 01:01:51 PM 30.0589 -90.0294 18° North 134 154 600  Level Houston Center
Wed 01:03:10 PM 30.1147 -90.0081 18° North 202 232 2,700 1,036 Climbing Houston Center
Wed 01:04:10 PM 30.1022 -89.9436 103° East 225 259 3,000 149 Climbing Houston Center
Wed 01:05:11 PM 30.0456 -89.9411 178° South 192 221 3,000  Level Houston Center
Wed 01:06:16 PM 30.0008 -89.9442 183° South 191 220 3,000  Level Houston Center
Wed 01:07:00 PM 29.9581 -89.9475 184° South 158 182 3,000  Level Houston Center
Wed 01:08:01 PM 29.9122 -89.9494 182° South 157 181 3,000 -198 Level Houston Center
Wed 01:09:01 PM 29.8731 -89.9703 205° Southwest 177 204 2,600 -189 Descending Houston Center
Wed 01:10:08 PM 29.8811 -90.0250 280° West 165 190 2,600 -166 Level Houston Center
Wed 01:11:26 PM 29.9311 -90.0300 355° North 158 182 2,200 -609 Descending Houston Center
Wed 01:12:16 PM 29.9669 -90.0286 North 132 152 1,300 -818 Descending Houston Center
Wed 01:13:16 PM 30.0025 -90.0294 359° North 122 140 700 -347 Descending Houston Center
Wed 01:14:17 PM 30.0358 -90.0306 358° North 117 135 600 787 Descending Houston Center
Wed 01:15:18 PM 30.0539 -90.0008 55° Northeast 144 166 2,300 1,180 Climbing Houston Center
Wed 01:16:19 PM 30.0314 -89.9539 119° Southeast 211 243 3,000 347 Climbing Houston Center
Wed 01:17:19 PM 29.9867 -89.9942 218° Southwest 232 267 3,000  Level Houston Center
Wed 01:18:20 PM 29.9467 -90.0486 230° Southwest 218 251 3,000 50 Level Houston Center
Wed 01:19:20 PM 29.9128 -90.1028 234° Southwest 207 238 3,100 99 Climbing Houston Center
Wed 01:20:21 PM 29.8769 -90.1594 234° Southwest 214 246 3,200 -393 Climbing Houston Center
Wed 01:21:22 PM 29.8539 -90.2253 248° West 235 270 2,300 -545 Descending Houston Center
Wed 01:22:22 PM 29.8517 -90.2878 268° West 180 207 2,100 -161 Descending Houston Center
Wed 01:23:51 PM 29.8972 -90.2800 North 162 186 1,900 -437 Descending Houston Center
Wed 01:24:53 PM 29.9358 -90.2692 14° North 149 171 1,000 -629 Descending Houston Center
Wed 01:25:55 PM 29.9767 -90.2575 14° North 143 165 600 -387 Descending Houston Center

Login

Don't have an account? Register now (free) for customized features, flight alerts, and more!